createdAt,value
2022-12-27T00:00:45.595Z,1.13
2022-12-27T00:02:47.202Z,0.40
2022-12-27T00:04:48.828Z,1.05
2022-12-27T00:06:50.499Z,1.00
2022-12-27T00:08:52.714Z,1.67
2022-12-27T00:10:54.278Z,1.70
2022-12-27T00:12:56.508Z,0.73
2022-12-27T00:14:57.945Z,0.98
2022-12-27T00:16:59.493Z,2.20
2022-12-27T00:19:01.994Z,0.70
2022-12-27T00:21:04.548Z,1.10
2022-12-27T00:23:06.741Z,7.32
2022-12-27T00:25:09.143Z,16.13
2022-12-27T00:27:10.838Z,19.05
2022-12-27T00:29:12.480Z,13.27
2022-12-27T00:31:15.016Z,9.00
2022-12-27T00:33:16.582Z,6.07
2022-12-27T00:35:18.205Z,4.13
2022-12-27T00:37:19.682Z,2.53
2022-12-27T00:39:21.279Z,1.40
2022-12-27T00:41:23.009Z,2.10
2022-12-27T00:43:24.649Z,1.48
2022-12-27T00:45:26.150Z,1.67
2022-12-27T00:47:27.663Z,2.58
2022-12-27T00:49:29.242Z,1.70
2022-12-27T00:51:30.815Z,0.88
2022-12-27T00:53:33.724Z,1.13
2022-12-27T00:55:35.750Z,2.63
2022-12-27T00:57:37.308Z,1.67
2022-12-27T00:59:38.761Z,3.00
2022-12-27T01:01:40.954Z,1.45
2022-12-27T01:03:43.490Z,1.15
2022-12-27T01:05:45.055Z,1.63
2022-12-27T01:07:46.588Z,1.00
2022-12-27T01:09:48.151Z,1.05
2022-12-27T01:11:49.735Z,2.30
2022-12-27T01:13:51.351Z,0.82
2022-12-27T01:15:52.901Z,1.90
2022-12-27T01:17:54.437Z,0.90
2022-12-27T01:19:56.166Z,1.42
2022-12-27T01:21:57.816Z,1.00
2022-12-27T01:23:59.345Z,1.48
2022-12-27T01:26:06.514Z,1.00
2022-12-27T01:28:09.146Z,2.33
2022-12-27T01:30:11.261Z,1.90
2022-12-27T01:32:12.867Z,1.88
2022-12-27T01:34:14.409Z,1.17
2022-12-27T01:36:21.907Z,2.28
2022-12-27T01:38:23.353Z,1.52
2022-12-27T01:40:25.375Z,1.42
2022-12-27T01:42:46.218Z,0.57
2022-12-27T01:44:56.397Z,1.55
2022-12-27T01:46:58.119Z,0.85
2022-12-27T01:48:59.661Z,2.47
2022-12-27T01:51:05.042Z,1.05
2022-12-27T01:53:24.771Z,0.95
2022-12-27T01:55:48.622Z,1.30
2022-12-27T01:57:53.480Z,1.75
2022-12-27T01:59:55.869Z,1.42
2022-12-27T02:01:58.315Z,1.33
2022-12-27T02:04:05.169Z,1.70
2022-12-27T02:06:09.691Z,1.25
2022-12-27T02:08:27.068Z,1.13
2022-12-27T02:10:29.427Z,1.00
2022-12-27T02:12:31.649Z,2.08
2022-12-27T02:14:45.228Z,3.08
2022-12-27T02:16:47.362Z,2.03
2022-12-27T02:18:49.245Z,0.73
2022-12-27T02:21:15.919Z,1.83
2022-12-27T02:24:04.332Z,1.73
2022-12-27T02:26:33.845Z,1.92
2022-12-27T02:29:06.253Z,0.80
2022-12-27T02:31:19.518Z,1.52
2022-12-27T02:33:27.513Z,2.17
2022-12-27T02:35:35.990Z,0.95
2022-12-27T02:37:44.482Z,1.75
2022-12-27T02:39:48.926Z,1.52
2022-12-27T02:42:10.775Z,1.73
2022-12-27T02:44:36.984Z,1.25
2022-12-27T02:46:57.266Z,0.75
2022-12-27T02:49:17.684Z,1.92
2022-12-27T02:52:05.293Z,1.40
2022-12-27T02:54:37.570Z,1.20
2022-12-27T02:57:07.604Z,1.08
2022-12-27T02:59:59.944Z,1.42
2022-12-27T03:02:33.619Z,0.88
2022-12-27T03:05:02.715Z,1.75
2022-12-27T03:07:37.114Z,1.30
2022-12-27T03:10:07.722Z,1.33
2022-12-27T03:12:56.156Z,1.35
2022-12-27T03:15:21.358Z,1.17
2022-12-27T03:17:34.145Z,1.05
2022-12-27T03:20:04.177Z,1.55
2022-12-27T03:22:27.536Z,1.38
2022-12-27T03:24:54.145Z,0.95
2022-12-27T03:26:58.451Z,1.10
2022-12-27T03:29:21.444Z,1.02
2022-12-27T03:31:46.223Z,0.93
2022-12-27T03:33:50.180Z,1.10
2022-12-27T03:36:23.803Z,0.93
2022-12-27T03:38:25.882Z,1.63
2022-12-27T03:41:09.623Z,1.45
2022-12-27T03:43:15.416Z,2.33
2022-12-27T03:45:20.809Z,1.77
2022-12-27T03:47:47.375Z,1.90
2022-12-27T03:50:02.943Z,2.05
2022-12-27T03:52:08.287Z,2.00
2022-12-27T03:54:18.827Z,3.53
2022-12-27T03:56:20.832Z,1.17
2022-12-27T03:58:22.446Z,0.75
2022-12-27T04:00:23.995Z,1.33
2022-12-27T04:02:25.740Z,1.88
2022-12-27T04:04:27.343Z,1.02
2022-12-27T04:06:28.907Z,1.05
2022-12-27T04:08:49.199Z,0.95
2022-12-27T04:11:09.114Z,1.05
2022-12-27T04:13:29.111Z,2.47
2022-12-27T04:15:49.939Z,2.05
2022-12-27T04:18:10.202Z,0.80
2022-12-27T04:20:30.594Z,2.00
2022-12-27T04:22:50.865Z,0.88
2022-12-27T04:25:10.618Z,2.17
2022-12-27T04:27:30.592Z,1.43
2022-12-27T04:29:50.343Z,1.58
2022-12-27T04:32:10.254Z,2.80
2022-12-27T04:34:30.264Z,1.63
2022-12-27T04:36:31.755Z,2.35
2022-12-27T04:38:33.395Z,1.60
2022-12-27T04:40:53.933Z,2.00
2022-12-27T04:43:14.343Z,2.30
2022-12-27T04:45:34.610Z,1.17
2022-12-27T04:47:55.134Z,1.40
2022-12-27T04:50:15.348Z,4.00
2022-12-27T04:52:37.679Z,2.45
2022-12-27T04:54:57.614Z,0.83
2022-12-27T04:56:59.090Z,1.33
2022-12-27T04:59:19.437Z,1.33
2022-12-27T05:01:39.960Z,1.53
2022-12-27T05:03:43.662Z,2.05
2022-12-27T05:05:46.735Z,1.50
2022-12-27T05:08:07.326Z,1.03
2022-12-27T05:10:28.067Z,0.93
2022-12-27T05:12:48.699Z,0.97
2022-12-27T05:14:50.264Z,1.27
2022-12-27T05:16:51.727Z,1.57
2022-12-27T05:18:53.714Z,1.03
2022-12-27T05:20:55.329Z,1.90
2022-12-27T05:23:15.720Z,1.93
2022-12-27T05:25:35.270Z,2.60
2022-12-27T05:27:36.784Z,1.80
2022-12-27T05:29:38.298Z,1.80
2022-12-27T05:31:40.122Z,2.37
2022-12-27T05:33:41.748Z,1.40
2022-12-27T05:35:43.969Z,1.00
2022-12-27T05:37:50.073Z,1.90
2022-12-27T05:39:54.711Z,3.20
2022-12-27T05:41:56.274Z,2.63
2022-12-27T05:44:02.126Z,2.00
2022-12-27T05:46:17.360Z,1.27
2022-12-27T05:48:19.130Z,1.67
2022-12-27T05:50:21.152Z,2.03
2022-12-27T05:52:25.378Z,1.13
2022-12-27T05:54:26.955Z,1.30
2022-12-27T05:56:29.266Z,1.10
2022-12-27T05:58:31.618Z,2.43
2022-12-27T06:00:33.149Z,1.93
2022-12-27T06:02:34.765Z,1.23
2022-12-27T06:04:36.390Z,1.90
2022-12-27T06:06:37.963Z,2.13
2022-12-27T06:08:40.254Z,3.07
2022-12-27T06:10:41.828Z,1.95
2022-12-27T06:12:43.247Z,1.58
2022-12-27T06:14:44.801Z,4.70
2022-12-27T06:16:49.603Z,1.50
2022-12-27T06:18:51.293Z,3.17
2022-12-27T06:20:52.827Z,1.53
2022-12-27T06:22:54.240Z,1.23
2022-12-27T06:24:55.787Z,3.53
2022-12-27T06:26:57.285Z,3.23
2022-12-27T06:28:58.937Z,2.50
2022-12-27T06:31:01.674Z,3.08
2022-12-27T06:33:03.203Z,1.70
2022-12-27T06:35:05.201Z,1.97
2022-12-27T06:37:06.700Z,4.27
2022-12-27T06:39:08.295Z,2.13
2022-12-27T06:41:13.374Z,3.30
2022-12-27T06:43:14.899Z,2.93
2022-12-27T06:45:16.508Z,3.73
2022-12-27T06:47:18.089Z,2.13
2022-12-27T06:49:19.796Z,2.87
2022-12-27T06:51:22.023Z,2.67
2022-12-27T06:53:23.863Z,3.33
2022-12-27T06:55:25.588Z,2.23
2022-12-27T06:57:27.211Z,1.77
2022-12-27T06:59:29.120Z,4.20
2022-12-27T07:01:30.986Z,1.77
2022-12-27T07:03:32.541Z,2.73
2022-12-27T07:05:38.325Z,1.70
2022-12-27T07:07:40.087Z,2.20
2022-12-27T07:09:41.834Z,2.47
2022-12-27T07:11:43.343Z,1.70
2022-12-27T07:13:48.358Z,2.07
2022-12-27T07:15:49.927Z,1.90
2022-12-27T07:17:51.512Z,2.03
2022-12-27T07:19:53.358Z,2.50
2022-12-27T07:21:55.195Z,1.20
2022-12-27T07:23:57.366Z,4.10
2022-12-27T07:26:10.926Z,2.63
2022-12-27T07:28:12.483Z,2.03
2022-12-27T07:30:14.095Z,1.93
2022-12-27T07:32:15.663Z,1.40
2022-12-27T07:34:17.192Z,2.77
2022-12-27T07:36:21.667Z,2.60
2022-12-27T07:38:23.138Z,1.47
2022-12-27T07:40:25.217Z,2.75
2022-12-27T07:42:28.707Z,2.63
2022-12-27T07:44:30.166Z,7.63
2022-12-27T07:46:32.945Z,11.63
2022-12-27T07:48:35.612Z,11.77
2022-12-27T07:50:37.378Z,11.23
2022-12-27T07:52:38.916Z,11.47
2022-12-27T07:54:41.415Z,9.23
2022-12-27T07:56:43.041Z,10.10
2022-12-27T07:58:46.980Z,10.50
2022-12-27T08:00:50.733Z,29.37
2022-12-27T08:02:52.330Z,24.20
2022-12-27T08:04:54.052Z,19.60
2022-12-27T08:07:17.102Z,17.33
2022-12-27T08:09:36.902Z,13.63
2022-12-27T08:11:39.625Z,12.70
2022-12-27T08:13:41.140Z,8.47
2022-12-27T08:15:43.609Z,7.60
2022-12-27T08:17:45.222Z,8.43
2022-12-27T08:19:47.398Z,5.75
2022-12-27T08:21:48.951Z,5.63
2022-12-27T08:23:52.346Z,5.68
2022-12-27T08:25:55.107Z,5.95
2022-12-27T08:28:07.759Z,6.90
2022-12-27T08:30:09.923Z,4.80
2022-12-27T08:32:11.656Z,5.60
2022-12-27T08:34:13.368Z,5.87
2022-12-27T08:36:52.954Z,6.63
2022-12-27T08:38:36.544Z,3.70
2022-12-27T08:40:43.422Z,6.78
2022-12-27T08:42:45.023Z,3.77
2022-12-27T08:44:46.588Z,6.07
2022-12-27T08:46:48.089Z,3.78
2022-12-27T08:48:50.761Z,5.45
2022-12-27T08:50:52.402Z,2.45
2022-12-27T08:52:58.029Z,4.45
2022-12-27T08:54:59.516Z,5.13
2022-12-27T08:57:01.025Z,2.42
2022-12-27T08:59:02.488Z,4.07
2022-12-27T09:01:11.134Z,3.42
2022-12-27T09:03:12.807Z,3.17
2022-12-27T09:05:14.504Z,2.47
2022-12-27T09:07:16.096Z,10.75
2022-12-27T09:09:17.835Z,12.30
2022-12-27T09:11:22.753Z,17.13
2022-12-27T09:13:24.278Z,16.80
2022-12-27T09:15:25.911Z,13.75
2022-12-27T09:17:49.911Z,13.10
2022-12-27T09:19:51.476Z,10.48
2022-12-27T09:21:52.990Z,7.07
2022-12-27T09:23:54.823Z,8.93
2022-12-27T09:25:58.890Z,5.88
2022-12-27T09:28:00.448Z,6.45
2022-12-27T09:30:03.543Z,5.88
2022-12-27T09:32:05.418Z,4.95
2022-12-27T09:34:06.959Z,3.13
2022-12-27T09:36:26.396Z,3.83
2022-12-27T09:38:27.954Z,3.95
2022-12-27T09:40:29.511Z,3.67
2022-12-27T09:42:56.208Z,3.83
2022-12-27T09:45:15.553Z,8.25
2022-12-27T09:47:33.041Z,6.00
2022-12-27T09:49:41.441Z,5.20
2022-12-27T09:52:14.719Z,4.65
2022-12-27T09:54:25.449Z,5.75
2022-12-27T09:56:47.408Z,7.00
2022-12-27T09:58:55.326Z,5.97
2022-12-27T10:00:56.971Z,3.88
2022-12-27T10:02:59.406Z,3.90
2022-12-27T10:05:20.740Z,4.82
2022-12-27T10:07:50.381Z,4.47
2022-12-27T10:09:51.845Z,5.82
2022-12-27T10:12:05.896Z,3.75
2022-12-27T10:14:33.785Z,4.30
2022-12-27T10:17:15.769Z,2.60
2022-12-27T10:19:26.162Z,3.17
2022-12-27T10:21:34.378Z,4.10
2022-12-27T10:23:38.669Z,2.92
2022-12-27T10:25:41.307Z,3.78
2022-12-27T10:27:43.386Z,3.60
2022-12-27T10:29:45.355Z,4.45
2022-12-27T10:31:46.906Z,5.60
2022-12-27T10:33:50.508Z,1.38
2022-12-27T10:35:52.237Z,3.00
2022-12-27T10:37:54.059Z,3.97
2022-12-27T10:40:08.603Z,2.90
2022-12-27T10:42:38.428Z,4.38
2022-12-27T10:44:40.126Z,3.17
2022-12-27T10:46:44.589Z,2.42
2022-12-27T10:51:23.384Z,3.08
2022-12-27T10:53:36.509Z,2.58
2022-12-27T10:55:39.165Z,3.65
2022-12-27T10:57:40.638Z,1.90
2022-12-27T10:59:42.103Z,3.65
2022-12-27T11:02:05.023Z,2.55
2022-12-27T11:04:15.971Z,2.28
2022-12-27T11:06:24.727Z,1.95
2022-12-27T11:08:26.425Z,2.72
2022-12-27T11:10:33.251Z,4.05
2022-12-27T11:12:36.215Z,2.22
2022-12-27T11:14:37.761Z,3.15
2022-12-27T11:16:40.996Z,3.95
2022-12-27T11:18:52.722Z,4.60
2022-12-27T11:20:57.171Z,4.60
2022-12-27T11:23:11.451Z,1.98
2022-12-27T11:25:15.327Z,2.72
2022-12-27T11:27:24.439Z,4.32
2022-12-27T11:29:28.218Z,3.33
2022-12-27T11:31:36.533Z,2.83
2022-12-27T11:33:47.321Z,2.00
2022-12-27T11:35:52.354Z,1.73
2022-12-27T11:37:53.968Z,3.13
2022-12-27T11:40:20.416Z,2.28
2022-12-27T11:42:38.683Z,2.55
2022-12-27T11:44:49.908Z,2.53
2022-12-27T11:47:31.514Z,2.70
2022-12-27T11:49:40.230Z,2.53
2022-12-27T11:52:06.585Z,3.50
2022-12-27T11:54:40.309Z,2.53
2022-12-27T11:57:23.286Z,3.58
2022-12-27T11:59:41.077Z,3.35
2022-12-27T12:02:13.560Z,3.25
2022-12-27T12:04:24.538Z,2.35
2022-12-27T12:06:48.299Z,3.17
2022-12-27T12:09:23.279Z,2.42
2022-12-27T12:11:57.165Z,2.95
2022-12-27T12:14:33.636Z,3.28
2022-12-27T12:17:09.279Z,3.33
2022-12-27T12:19:30.695Z,2.78
2022-12-27T12:22:24.457Z,2.72
2022-12-27T12:24:37.304Z,1.92
2022-12-27T12:27:02.125Z,2.90
2022-12-27T12:29:28.636Z,3.53
2022-12-27T12:32:10.594Z,2.50
2022-12-27T12:34:36.133Z,2.28
2022-12-27T12:37:05.739Z,3.30
2022-12-27T12:39:32.924Z,2.72
2022-12-27T12:41:51.918Z,2.53
2022-12-27T12:44:28.347Z,2.55
2022-12-27T12:46:54.817Z,2.83
2022-12-27T12:49:17.890Z,2.00
2022-12-27T12:51:35.419Z,2.03
2022-12-27T12:53:36.830Z,3.80
2022-12-27T12:55:51.522Z,3.58
2022-12-27T12:58:23.886Z,2.75
2022-12-27T13:00:42.598Z,3.80
2022-12-27T13:03:16.366Z,4.07
2022-12-27T13:05:38.401Z,4.45
2022-12-27T13:08:04.699Z,3.95
2022-12-27T13:10:37.091Z,2.88
2022-12-27T13:12:53.063Z,3.22
2022-12-27T13:15:13.329Z,2.85
2022-12-27T13:17:24.295Z,1.90
2022-12-27T13:19:50.068Z,4.32
2022-12-27T13:22:34.238Z,2.17
2022-12-27T13:24:59.581Z,3.45
2022-12-27T13:27:15.573Z,3.72
2022-12-27T13:29:38.747Z,3.92
2022-12-27T13:32:02.104Z,2.50
2022-12-27T13:34:20.024Z,3.03
2022-12-27T13:36:33.577Z,3.33
2022-12-27T13:38:50.646Z,3.17
2022-12-27T13:41:10.658Z,4.10
2022-12-27T13:43:51.030Z,3.67
2022-12-27T13:46:12.619Z,3.35
2022-12-27T13:49:06.751Z,2.92
2022-12-27T13:51:11.111Z,3.78
2022-12-27T13:53:29.842Z,2.70
2022-12-27T13:55:52.130Z,1.95
2022-12-27T13:58:13.788Z,2.85
2022-12-27T14:00:22.943Z,3.88
2022-12-27T14:03:01.820Z,2.95
2022-12-27T14:05:15.120Z,3.75
2022-12-27T14:07:53.836Z,3.45
2022-12-27T14:10:18.540Z,2.15
2022-12-27T14:12:59.556Z,5.32
2022-12-27T14:15:06.651Z,3.40
2022-12-27T14:17:30.873Z,1.88
2022-12-27T14:19:57.429Z,3.47
2022-12-27T14:22:16.473Z,2.58
2022-12-27T14:24:43.389Z,2.95
2022-12-27T14:27:30.842Z,3.70
2022-12-27T14:29:59.621Z,4.55
2022-12-27T14:32:13.013Z,5.03
2022-12-27T14:34:59.889Z,3.30
2022-12-27T14:37:19.618Z,3.75
2022-12-27T14:39:42.573Z,3.35
2022-12-27T14:42:08.825Z,3.22
2022-12-27T14:44:37.964Z,2.38
2022-12-27T14:47:08.352Z,4.47
2022-12-27T14:49:26.301Z,3.08
2022-12-27T14:52:12.136Z,2.80
2022-12-27T14:54:53.854Z,3.72
2022-12-27T14:57:15.282Z,3.13
2022-12-27T14:59:35.440Z,3.50
2022-12-27T15:01:58.154Z,2.50
2022-12-27T15:04:27.382Z,3.42
2022-12-27T15:06:53.715Z,3.47
2022-12-27T15:09:19.896Z,2.60
2022-12-27T15:11:51.683Z,1.85
2022-12-27T15:14:07.066Z,4.05
2022-12-27T15:16:40.913Z,6.20
2022-12-27T15:18:49.255Z,4.15
2022-12-27T15:21:19.695Z,4.13
2022-12-27T15:23:35.057Z,2.92
2022-12-27T15:25:45.903Z,3.33
2022-12-27T15:28:00.605Z,3.25
2022-12-27T15:30:38.765Z,5.30
2022-12-27T15:32:58.269Z,2.17
2022-12-27T15:35:23.322Z,3.47
2022-12-27T15:37:52.733Z,4.07
2022-12-27T15:39:54.404Z,2.35
2022-12-27T15:42:04.787Z,4.22
2022-12-27T15:44:14.377Z,2.97
2022-12-27T15:46:39.620Z,4.15
2022-12-27T15:49:05.965Z,3.35
2022-12-27T15:51:29.031Z,2.97
2022-12-27T15:54:08.239Z,3.22
2022-12-27T15:56:26.204Z,2.60
2022-12-27T15:58:27.973Z,3.83
2022-12-27T16:00:34.245Z,2.72
2022-12-27T16:02:48.012Z,4.07
2022-12-27T16:05:14.441Z,3.95
2022-12-27T16:07:39.789Z,2.95
2022-12-27T16:09:41.385Z,4.80
2022-12-27T16:12:00.500Z,2.85
2022-12-27T16:14:24.345Z,2.65
2022-12-27T16:16:26.007Z,2.95
2022-12-27T16:18:46.281Z,4.43
2022-12-27T16:20:56.819Z,5.68
2022-12-27T16:23:02.167Z,3.65
2022-12-27T16:25:28.618Z,4.55
2022-12-27T16:27:35.107Z,3.75
2022-12-27T16:29:43.739Z,4.20
2022-12-27T16:31:49.494Z,4.22
2022-12-27T16:33:58.989Z,5.25
2022-12-27T16:36:13.527Z,5.32
2022-12-27T16:38:22.421Z,3.42
2022-12-27T16:40:38.088Z,4.07
2022-12-27T16:42:48.835Z,5.13
2022-12-27T16:45:02.983Z,5.80
2022-12-27T16:47:26.075Z,4.18
2022-12-27T16:49:39.335Z,2.95
2022-12-27T16:52:25.313Z,3.30
2022-12-27T16:54:44.988Z,2.95
2022-12-27T16:56:48.319Z,3.47
2022-12-27T16:58:50.237Z,4.82
2022-12-27T17:00:59.713Z,2.55
2022-12-27T17:03:21.477Z,4.45
2022-12-27T17:05:35.454Z,6.10
2022-12-27T17:07:57.308Z,5.28
2022-12-27T17:10:27.658Z,7.72
2022-12-27T17:12:29.277Z,2.67
2022-12-27T17:14:37.049Z,2.38
2022-12-27T17:16:55.303Z,4.00
2022-12-27T17:19:04.079Z,2.88
2022-12-27T17:21:23.314Z,2.75
2022-12-27T17:23:28.465Z,4.18
2022-12-27T17:25:41.723Z,3.20
2022-12-27T17:28:10.443Z,2.42
2022-12-27T17:30:20.625Z,3.15
2022-12-27T17:32:55.882Z,2.75
2022-12-27T17:35:14.331Z,5.13
2022-12-27T17:37:28.135Z,3.20
2022-12-27T17:40:02.123Z,3.75
2022-12-27T17:42:38.076Z,2.97
2022-12-27T17:45:31.402Z,8.55
2022-12-27T17:48:00.836Z,7.55
2022-12-27T17:50:06.176Z,9.50
2022-12-27T17:52:34.510Z,12.93
2022-12-27T17:54:57.719Z,15.63
2022-12-27T17:57:19.439Z,13.93
2022-12-27T17:59:25.789Z,13.93
2022-12-27T18:01:29.886Z,13.45
2022-12-27T18:03:39.476Z,12.77
2022-12-27T18:05:43.720Z,8.55
2022-12-27T18:07:45.449Z,7.65
2022-12-27T18:09:49.697Z,6.80
2022-12-27T18:11:51.352Z,5.05
2022-12-27T18:13:56.612Z,4.05
2022-12-27T18:15:58.669Z,6.00
2022-12-27T18:18:07.035Z,4.57
2022-12-27T18:20:26.639Z,2.78
2022-12-27T18:22:28.505Z,4.15
2022-12-27T18:24:32.718Z,4.53
2022-12-27T18:26:40.875Z,4.20
2022-12-27T18:28:43.455Z,5.50
2022-12-27T18:30:55.564Z,4.82
2022-12-27T18:32:57.921Z,3.72
2022-12-27T18:35:02.838Z,4.75
2022-12-27T18:37:11.261Z,6.30
2022-12-27T18:39:29.667Z,5.30
2022-12-27T18:41:40.494Z,6.93
2022-12-27T18:43:44.875Z,6.18
2022-12-27T18:45:46.543Z,8.98
2022-12-27T18:47:50.965Z,8.85
2022-12-27T18:50:03.856Z,9.00
2022-12-27T18:52:14.275Z,8.40
2022-12-27T18:54:28.003Z,6.65
2022-12-27T18:56:34.912Z,6.82
2022-12-27T18:58:36.474Z,5.00
2022-12-27T19:00:49.693Z,3.90
2022-12-27T19:02:53.150Z,5.05
2022-12-27T19:05:24.091Z,5.53
2022-12-27T19:07:25.904Z,3.22
2022-12-27T19:09:35.174Z,3.65
2022-12-27T19:11:38.253Z,4.20
2022-12-27T19:13:49.024Z,6.63
2022-12-27T19:15:51.801Z,12.80
2022-12-27T19:17:58.167Z,12.50
2022-12-27T19:20:06.622Z,19.23
2022-12-27T19:22:46.625Z,20.50
2022-12-27T19:24:48.172Z,16.77
2022-12-27T19:26:51.305Z,13.98
2022-12-27T19:29:08.965Z,13.75
2022-12-27T19:31:21.930Z,12.18
2022-12-27T19:33:29.965Z,7.75
2022-12-27T19:35:31.634Z,7.97
2022-12-27T19:37:33.612Z,7.28
2022-12-27T19:39:37.872Z,9.75
2022-12-27T19:45:05.554Z,9.10
2022-12-27T19:47:12.327Z,11.10
2022-12-27T19:51:37.284Z,11.52
2022-12-27T19:53:45.288Z,13.45
2022-12-27T19:55:48.379Z,12.15
2022-12-27T19:57:49.969Z,14.85
2022-12-27T19:59:51.441Z,13.18
2022-12-27T20:01:53.590Z,12.95
2022-12-27T20:03:55.419Z,13.17
2022-12-27T20:06:11.747Z,11.05
2022-12-27T20:08:37.924Z,7.65
2022-12-27T20:10:39.540Z,7.82
2022-12-27T20:13:28.102Z,8.07
2022-12-27T20:15:31.188Z,6.85
2022-12-27T20:17:32.817Z,7.43
2022-12-27T20:19:34.697Z,7.22
2022-12-27T20:21:36.293Z,5.82
2022-12-27T20:23:38.036Z,6.28
2022-12-27T20:25:43.120Z,5.93
2022-12-27T20:27:44.843Z,6.13
2022-12-27T20:29:46.487Z,6.82
2022-12-27T20:31:50.104Z,7.35
2022-12-27T20:33:55.716Z,10.60
2022-12-27T20:36:23.625Z,9.88
2022-12-27T20:38:26.142Z,8.57
2022-12-27T20:40:28.022Z,11.77
2022-12-27T20:42:29.687Z,10.25
2022-12-27T20:44:31.343Z,9.55
2022-12-27T20:46:32.836Z,10.50
2022-12-27T20:48:38.070Z,10.47
2022-12-27T20:50:40.832Z,9.80
2022-12-27T20:52:42.303Z,12.63
2022-12-27T20:54:43.894Z,12.47
2022-12-27T20:56:45.503Z,11.90
2022-12-27T20:58:47.175Z,11.33
2022-12-27T21:00:48.680Z,10.87
2022-12-27T21:02:50.391Z,12.67
2022-12-27T21:04:51.866Z,11.07
2022-12-27T21:06:53.468Z,12.50
2022-12-27T21:08:57.770Z,11.05
2022-12-27T21:11:06.175Z,15.13
2022-12-27T21:13:07.822Z,12.25
2022-12-27T21:15:10.691Z,11.57
2022-12-27T21:17:12.516Z,12.47
2022-12-27T21:19:14.168Z,11.77
2022-12-27T21:21:19.815Z,9.47
2022-12-27T21:23:21.499Z,9.57
2022-12-27T21:25:23.041Z,10.23
2022-12-27T21:27:24.621Z,9.67
2022-12-27T21:29:26.152Z,10.13
2022-12-27T21:31:28.685Z,16.47
2022-12-27T21:33:30.813Z,18.33
2022-12-27T21:35:32.318Z,26.13
2022-12-27T21:37:33.786Z,32.00
2022-12-27T21:39:35.560Z,26.17
2022-12-27T21:41:39.365Z,22.57
2022-12-27T21:43:41.476Z,18.73
2022-12-27T21:45:42.929Z,17.60
2022-12-27T21:47:44.338Z,14.33
2022-12-27T21:49:45.908Z,17.83
2022-12-27T21:51:47.553Z,22.53
2022-12-27T21:53:49.210Z,25.73
2022-12-27T21:55:58.340Z,25.73
2022-12-27T21:57:59.708Z,19.90
2022-12-27T22:00:01.294Z,16.97
2022-12-27T22:02:02.870Z,15.77
2022-12-27T22:04:04.747Z,13.23
2022-12-27T22:06:16.947Z,15.03
2022-12-27T22:08:18.589Z,15.20
2022-12-27T22:10:20.229Z,16.43
2022-12-27T22:12:21.776Z,14.93
2022-12-27T22:14:25.776Z,16.50
2022-12-27T22:16:31.606Z,17.47
2022-12-27T22:18:34.982Z,18.73
2022-12-27T22:20:37.789Z,19.67
2022-12-27T22:22:42.137Z,19.37
2022-12-27T22:24:43.699Z,16.43
2022-12-27T22:26:45.333Z,15.70
2022-12-27T22:28:47.082Z,14.17
2022-12-27T22:30:51.811Z,13.27
2022-12-27T22:32:54.199Z,11.63
2022-12-27T22:34:55.995Z,10.83
2022-12-27T22:36:57.444Z,14.33
2022-12-27T22:38:59.673Z,12.07
2022-12-27T22:41:16.468Z,14.67
2022-12-27T22:43:17.952Z,16.77
2022-12-27T22:45:19.561Z,18.50
2022-12-27T22:47:28.689Z,13.77
2022-12-27T22:49:30.388Z,13.63
2022-12-27T22:51:34.503Z,11.40
2022-12-27T22:53:36.275Z,32.23
2022-12-27T22:55:41.146Z,40.63
2022-12-27T22:57:42.742Z,44.07
2022-12-27T22:59:44.349Z,34.87
2022-12-27T23:01:46.212Z,29.27
2022-12-27T23:03:48.217Z,23.97
2022-12-27T23:06:00.182Z,18.60
2022-12-27T23:08:06.126Z,16.17
2022-12-27T23:10:09.585Z,15.63
2022-12-27T23:12:11.924Z,15.10
2022-12-27T23:14:15.978Z,14.17
2022-12-27T23:16:17.597Z,13.00
2022-12-27T23:18:19.201Z,11.43
2022-12-27T23:20:20.750Z,9.77
2022-12-27T23:22:22.318Z,10.67
2022-12-27T23:24:23.855Z,10.33
2022-12-27T23:26:25.985Z,6.33
2022-12-27T23:28:27.704Z,7.30
2022-12-27T23:30:29.330Z,7.67
2022-12-27T23:32:30.859Z,4.73
2022-12-27T23:34:32.385Z,5.53
2022-12-27T23:36:34.315Z,7.63
2022-12-27T23:38:35.886Z,7.50
2022-12-27T23:40:37.437Z,6.73
2022-12-27T23:42:39.037Z,5.10
2022-12-27T23:44:40.661Z,6.60
2022-12-27T23:46:42.434Z,5.77
2022-12-27T23:48:49.608Z,5.83
2022-12-27T23:50:51.312Z,5.87
2022-12-27T23:52:52.940Z,5.17
2022-12-27T23:54:54.419Z,5.90
2022-12-27T23:56:56.151Z,7.40
2022-12-27T23:58:59.687Z,5.60
